createdAt,value
2018-04-29T17:29:40.742Z,7.93
2018-04-29T17:32:06.461Z,7.85
2018-04-29T17:34:32.094Z,4.10
2018-04-29T17:36:58.774Z,5.60
2018-04-29T17:39:24.339Z,7.37
2018-04-29T17:41:49.944Z,9.20
2018-04-29T17:44:16.018Z,6.73
2018-04-29T17:46:41.501Z,4.87
2018-04-29T17:49:07.241Z,5.50
2018-04-29T17:51:32.965Z,5.53
2018-04-29T17:53:58.664Z,6.17
2018-04-29T17:56:24.296Z,6.60
2018-04-29T17:58:50.382Z,7.10
2018-04-29T18:01:16.391Z,4.53
2018-04-29T18:03:42.146Z,6.30
2018-04-29T18:06:07.767Z,8.00
2018-04-29T18:08:33.335Z,6.03
2018-04-29T18:10:59.072Z,6.03
2018-04-29T18:13:24.682Z,5.13
2018-04-29T18:15:50.243Z,7.33
2018-04-29T18:18:16.345Z,8.00
2018-04-29T18:20:42.002Z,5.87
2018-04-29T18:23:10.482Z,7.47
2018-04-29T18:25:36.059Z,10.83
2018-04-29T18:28:02.338Z,6.50
2018-04-29T18:30:27.934Z,8.63
2018-04-29T18:32:54.075Z,5.27
2018-04-29T18:35:19.779Z,5.30
2018-04-29T18:37:46.212Z,8.47
2018-04-29T18:40:11.906Z,7.25
2018-04-29T18:42:37.596Z,4.87
2018-04-29T18:45:03.991Z,7.23
2018-04-29T18:47:29.975Z,6.43
2018-04-29T18:49:55.616Z,5.53
2018-04-29T18:52:21.544Z,6.93
2018-04-29T18:54:47.374Z,4.73
2018-04-29T18:57:12.996Z,6.50
2018-04-29T18:59:38.711Z,8.17
2018-04-29T19:02:05.022Z,6.70
2018-04-29T19:04:30.737Z,8.97
2018-04-29T19:06:57.035Z,10.53
2018-04-29T19:09:22.640Z,7.73
2018-04-29T19:11:48.684Z,9.40
2018-04-29T19:14:14.363Z,11.75
2018-04-29T19:16:39.976Z,11.17
2018-04-29T19:19:05.694Z,7.53
2018-04-29T19:21:31.326Z,9.73
2018-04-29T19:23:57.036Z,6.43
2018-04-29T19:26:22.721Z,8.47
2018-04-29T19:28:48.460Z,6.10
2018-04-29T19:31:14.032Z,8.63
2018-04-29T19:33:39.722Z,6.17
2018-04-29T19:36:05.408Z,10.13
2018-04-29T19:38:31.107Z,6.33
2018-04-29T19:40:57.185Z,8.27
2018-04-29T19:43:22.754Z,9.90
2018-04-29T19:45:48.326Z,6.00
2018-04-29T19:48:14.551Z,7.93
2018-04-29T19:50:40.130Z,10.80
2018-04-29T19:53:05.741Z,4.93
2018-04-29T19:55:31.464Z,7.67
2018-04-29T19:57:57.180Z,9.63
2018-04-29T20:00:22.804Z,10.07
2018-04-29T20:02:48.867Z,7.72
2018-04-29T20:05:15.416Z,8.30
2018-04-29T20:07:41.236Z,7.97
2018-04-29T20:10:06.969Z,10.47
2018-04-29T20:12:32.561Z,9.83
2018-04-29T20:14:58.138Z,10.40
2018-04-29T20:17:23.928Z,8.60
2018-04-29T20:19:49.573Z,8.17
2018-04-29T20:22:15.177Z,11.17
2018-04-29T20:24:40.969Z,8.47
2018-04-29T20:27:06.704Z,7.20
2018-04-29T20:29:32.306Z,9.23
2018-04-29T20:31:58.034Z,8.40
2018-04-29T20:34:23.583Z,11.50
2018-04-29T20:36:49.143Z,11.05
2018-04-29T20:39:14.954Z,10.50
2018-04-29T20:41:40.587Z,6.87
2018-04-29T20:44:06.168Z,8.50
2018-04-29T20:46:31.902Z,8.73
2018-04-29T20:48:57.527Z,9.57
2018-04-29T20:51:23.096Z,9.17
2018-04-29T20:53:48.957Z,9.47
2018-04-29T20:56:14.770Z,7.57
2018-04-29T20:58:40.324Z,9.30
2018-04-29T21:01:06.041Z,7.60
2018-04-29T21:03:31.660Z,11.80
2018-04-29T21:05:57.227Z,9.40
2018-04-29T21:08:22.981Z,7.30
2018-04-29T21:10:48.809Z,11.77
2018-04-29T21:13:15.260Z,7.40
2018-04-29T21:15:40.996Z,7.10
2018-04-29T21:18:06.573Z,6.30
2018-04-29T21:20:32.190Z,7.27
2018-04-29T21:22:58.005Z,7.90
2018-04-29T21:25:23.725Z,9.90
2018-04-29T21:27:49.319Z,6.97
2018-04-29T21:30:15.087Z,10.03
2018-04-29T21:32:40.812Z,11.77
2018-04-29T21:35:06.386Z,12.20
2018-04-29T21:37:32.034Z,9.47
2018-04-29T21:39:57.802Z,9.13
2018-04-29T21:42:23.472Z,11.45
2018-04-29T21:44:49.031Z,10.57
2018-04-29T21:47:14.804Z,10.93
2018-04-29T21:49:40.498Z,10.77
2018-04-29T21:52:06.103Z,7.30
2018-04-29T21:54:31.962Z,10.67
2018-04-29T21:56:57.615Z,10.33
2018-04-29T21:59:23.224Z,8.27
2018-04-29T22:01:49.056Z,7.67
2018-04-29T22:04:14.754Z,9.07
2018-04-29T22:06:40.277Z,6.97
2018-04-29T22:09:06.051Z,6.70
2018-04-29T22:11:31.815Z,10.87
2018-04-29T22:13:57.380Z,6.87
2018-04-29T22:16:23.109Z,5.27
2018-04-29T22:18:48.677Z,4.60
2018-04-29T22:21:14.271Z,5.47
2018-04-29T22:23:40.071Z,5.17
2018-04-29T22:26:05.686Z,7.85
2018-04-29T22:28:31.247Z,7.37
2018-04-29T22:30:57.073Z,6.50
2018-04-29T22:33:22.637Z,9.53
2018-04-29T22:35:48.238Z,6.40
2018-04-29T22:38:14.009Z,5.63
2018-04-29T22:40:39.725Z,8.57
2018-04-29T22:43:05.354Z,7.37
2018-04-29T22:45:31.115Z,6.57
2018-04-29T22:47:56.762Z,4.80
2018-04-29T22:50:22.268Z,4.53
2018-04-29T22:52:51.495Z,5.70
2018-04-29T22:55:17.150Z,7.67
2018-04-29T22:57:42.740Z,5.20
2018-04-29T23:00:08.847Z,4.03
2018-04-29T23:02:34.402Z,3.73
2018-04-29T23:05:00.009Z,5.40
2018-04-29T23:07:25.761Z,2.97
2018-04-29T23:09:51.389Z,2.80
2018-04-29T23:12:17.004Z,1.97
2018-04-29T23:14:42.784Z,3.50
2018-04-29T23:17:08.455Z,1.33
2018-04-29T23:19:34.073Z,1.63
2018-04-29T23:21:59.831Z,2.23
2018-04-29T23:24:25.409Z,2.43
2018-04-29T23:26:51.363Z,3.40
2018-04-29T23:29:17.081Z,4.20
2018-04-29T23:31:42.721Z,3.33
2018-04-29T23:34:08.284Z,2.97
2018-04-29T23:36:34.367Z,2.73
2018-04-29T23:38:59.934Z,2.20
2018-04-29T23:41:25.540Z,3.63
2018-04-29T23:43:51.355Z,2.70
2018-04-29T23:46:17.300Z,2.60
2018-04-29T23:48:42.928Z,1.97
2018-04-29T23:51:08.651Z,2.13
2018-04-29T23:53:34.231Z,1.30
2018-04-29T23:55:59.783Z,0.73
2018-04-29T23:58:25.483Z,2.33
